Latest Weather Observations for Gosford

IDN60901

Issued at 9:11 pm EDT Tuesday 23 October 2018 (issued every 10 minutes, with the page automatically refreshed every 10 minutes)

About weather observations | Map of Sydney area stations | Latest observations for Sydney area | Other Formats
Station Details ID: 061425 Name: GOSFORD AWS Lat: -33.44 Lon: 151.36 Height: 7.0 m
Data from the previous 72 hours. | See also: Recent months at Gosford
Date/Time
EDT
Temp
°C
App
Temp
°C
Dew
Point
°C
Rel
Hum
%
Delta-T
°C
Wind Press
QNH
hPa
Press
MSL
hPa
Rain since
9am
mm
Dir  Spd
km/h
Gust
km/h
Spd
kts
Gust
kts
23/09:00pm 19.6 21.9 17.6 88 1.2 NNE 2 4 1 2 - - 0.0
23/08:30pm 19.8 21.2 17.4 86 1.5 ENE 6 7 3 4 - - 0.0
23/08:00pm 20.3 22.4 17.3 83 1.8 ENE 2 6 1 3 - - 0.0
23/07:30pm 21.5 23.3 17.5 78 2.5 NNE 4 6 2 3 - - 0.0
23/07:00pm 22.4 24.5 17.3 73 3.1 ENE 2 4 1 2 - - 0.0
23/06:30pm 23.2 24.3 17.2 69 3.7 E 7 11 4 6 - - 0.0
23/06:00pm 23.7 24.1 17.2 67 4.0 ENE 11 19 6 10 - - 0.0
23/05:30pm 23.8 23.1 17.3 67 4.0 ENE 17 28 9 15 - - 0.0
23/05:00pm 24.4 25.1 17.9 67 4.1 ENE 11 20 6 11 - - 0.0
23/04:30pm 24.2 24.0 17.7 67 4.1 ENE 15 22 8 12 - - 0.0
23/04:00pm 24.0 22.4 17.5 67 4.0 ENE 22 30 12 16 - - 0.0
23/03:30pm 24.6 24.0 17.6 65 4.4 ENE 17 28 9 15 - - 0.0
23/03:00pm 25.3 24.5 18.0 64 4.6 ENE 19 28 10 15 - - 0.0
23/02:30pm 25.6 25.4 18.5 65 4.5 ENE 17 24 9 13 - - 0.0
23/02:00pm 26.3 26.7 18.9 63 4.7 ENE 15 20 8 11 - - 0.0
23/01:30pm 26.2 26.6 18.9 64 4.7 ENE 15 22 8 12 - - 0.0
23/01:00pm 25.0 25.6 18.7 68 4.0 E 13 20 7 11 - - 0.0
23/12:30pm 24.0 24.4 18.2 70 3.6 ESE 13 19 7 10 - - 0.0
23/12:00pm 24.5 25.2 18.0 67 4.1 E 11 17 6 9 - - 0.0
23/11:30am 24.1 24.6 17.4 66 4.2 ESE 11 17 6 9 - - 0.0
23/11:00am 23.7 24.7 17.7 69 3.7 ESE 9 15 5 8 - - 0.0
23/10:30am 23.3 25.5 17.5 70 3.6 ESE 2 7 1 4 - - 0.0
23/10:00am 22.9 25.7 18.0 74 3.1 CALM 0 6 0 3 - - 0.0
23/09:30am 21.7 24.5 17.9 79 2.4 CALM 0 4 0 2 - - 0.0
23/09:00am 19.5 21.2 16.2 81 2.0 S 2 4 1 2 - - 0.2
23/08:30am 18.5 20.1 15.9 85 1.5 SSW 2 6 1 3 - - 0.2
23/08:00am 16.9 18.7 15.4 91 0.9 CALM 0 0 0 0 - - 0.2
23/07:30am 15.9 17.6 15.1 95 0.5 CALM 0 0 0 0 - - 0.2
23/07:00am 14.7 16.1 14.5 99 0.1 CALM 0 0 0 0 - - 0.2
23/06:30am 13.3 14.2 13.0 98 0.2 CALM 0 0 0 0 - - 0.2
23/06:00am 13.4 14.4 13.1 98 0.2 CALM 0 0 0 0 - - 0.2
23/05:30am 13.6 14.6 13.3 98 0.2 CALM 0 0 0 0 - - 0.2
23/05:00am 13.5 14.5 13.2 98 0.2 CALM 0 0 0 0 - - 0.2
23/04:30am 14.0 15.2 13.7 98 0.2 CALM 0 0 0 0 - - 0.2
23/04:00am 13.9 15.0 13.4 97 0.3 CALM 0 0 0 0 - - 0.2
23/03:30am 14.2 15.4 13.7 97 0.3 CALM 0 0 0 0 - - 0.2
23/03:00am 14.4 15.7 14.1 98 0.2 CALM 0 0 0 0 - - 0.2
23/02:30am 14.6 15.9 14.0 96 0.3 CALM 0 0 0 0 - - 0.2
23/02:00am 15.0 16.4 14.4 96 0.3 CALM 0 0 0 0 - - 0.2
23/01:30am 15.1 16.4 14.1 94 0.6 CALM 0 0 0 0 - - 0.2
23/01:00am 15.6 17.0 14.5 93 0.6 CALM 0 0 0 0 - - 0.2
23/12:30am 16.3 17.9 15.0 92 0.8 CALM 0 0 0 0 - - 0.2
23/12:00am 17.1 18.8 15.3 89 1.0 CALM 0 4 0 2 - - 0.2
 
Date/Time
EDT
Temp
°C
App
Temp
°C
Dew
Point
°C
Rel
Hum
%
Delta-T
°C
Wind Press
QNH
hPa
Press
MSL
hPa
Rain since
9am
mm
Dir  Spd
km/h
Gust
km/h
Spd
kts
Gust
kts
22/11:30pm 17.4 18.4 15.4 88 1.2 NNE 4 15 2 8 - - 0.2
22/11:00pm 17.2 18.1 15.0 87 1.3 NNE 4 7 2 4 - - 0.2
22/10:30pm 17.4 18.0 15.2 87 1.3 NNE 6 9 3 5 - - 0.2
22/10:00pm 17.4 18.7 15.2 87 1.3 NNE 2 6 1 3 - - 0.2
22/09:30pm 17.7 18.2 15.1 85 1.5 NE 6 9 3 5 - - 0.2
22/09:00pm 17.7 18.2 15.1 85 1.5 NE 6 9 3 5 - - 0.2
22/08:30pm 18.3 18.9 15.2 82 1.8 NE 6 11 3 6 - - 0.2
22/08:00pm 18.4 18.7 15.1 81 1.9 NE 7 15 4 8 - - 0.2
22/07:30pm 18.7 18.6 15.0 79 2.2 NE 9 17 5 9 - - 0.2
22/07:00pm 19.1 19.3 14.8 76 2.5 NE 7 15 4 8 - - 0.2
22/06:30pm 19.7 18.3 14.5 72 3.0 NE 15 22 8 12 - - 0.2
22/06:00pm 20.1 18.8 14.7 71 3.2 NE 15 24 8 13 - - 0.2
22/05:30pm 20.6 19.6 14.7 69 3.5 NE 13 24 7 13 - - 0.2
22/05:00pm 20.8 19.6 15.1 70 3.4 ENE 15 22 8 12 - - 0.2
22/04:30pm 20.7 19.2 15.3 71 3.2 ENE 17 24 9 13 - - 0.2
22/04:00pm 20.9 19.4 15.4 71 3.3 NE 17 26 9 14 - - 0.2
22/03:30pm 20.7 19.7 15.5 72 3.1 ENE 15 24 8 13 - - 0.2
22/03:00pm 21.0 19.6 15.5 71 3.3 E 17 26 9 14 - - 0.2
22/02:30pm 21.1 19.3 15.4 70 3.4 ENE 19 26 10 14 - - 0.2
22/02:00pm 20.9 19.6 15.9 73 3.0 ENE 17 24 9 13 - - 0.2
22/01:30pm 20.6 19.2 15.6 73 3.0 ENE 17 24 9 13 - - 0.2
22/01:00pm 21.0 20.2 16.2 74 2.9 ENE 15 22 8 12 - - 0.0
22/12:30pm 20.4 19.9 16.0 76 2.6 E 13 24 7 13 - - 0.0
22/12:00pm 20.8 21.5 16.2 75 2.8 E 7 13 4 7 - - 0.0
22/11:30am 19.9 20.2 16.0 78 2.3 E 9 13 5 7 - - 0.0
22/11:00am 20.2 21.3 17.2 83 1.8 ENE 7 13 4 7 - - 0.0
22/10:30am 19.8 21.8 16.1 79 2.2 CALM 0 2 0 1 - - 0.0
22/10:00am 19.1 20.2 15.6 80 2.1 S 4 6 2 3 - - 0.0
22/09:30am 19.2 20.8 15.9 81 2.0 W 2 4 1 2 - - 0.0
22/09:00am 18.4 19.8 15.5 83 1.7 N 2 6 1 3 - - 1.4
22/08:30am 18.0 19.7 15.1 83 1.7 CALM 0 0 0 0 - - 1.4
22/08:00am 17.5 18.9 15.3 87 1.3 NW 2 4 1 2 - - 1.4
22/07:30am 16.5 18.3 15.5 94 0.6 CALM 0 0 0 0 - - 1.4
22/07:00am 15.7 16.5 14.9 95 0.5 NNW 4 4 2 2 - - 1.4
22/06:30am 15.8 16.6 14.8 94 0.6 SSW 4 7 2 4 - - 1.4
22/06:00am 15.9 17.2 15.1 95 0.5 NNW 2 6 1 3 - - 1.4
22/05:30am 15.9 17.2 15.1 95 0.5 WNW 2 4 1 2 - - 1.4
22/05:00am 15.9 17.3 15.3 96 0.3 WNW 2 4 1 2 - - 1.4
22/04:30am 15.9 16.9 15.3 96 0.3 W 4 6 2 3 - - 1.4
22/04:00am 15.8 17.1 15.2 96 0.3 W 2 6 1 3 - - 1.4
22/03:30am 15.6 16.1 15.1 97 0.3 WNW 6 7 3 4 - - 1.4
22/03:00am 15.4 16.7 15.1 98 0.2 NNW 2 6 1 3 - - 1.4
22/02:30am 15.4 17.0 14.9 97 0.3 CALM 0 0 0 0 - - 1.4
22/02:00am 15.6 16.8 15.0 96 0.3 WSW 2 2 1 1 - - 1.4
22/01:30am 15.9 16.9 15.4 97 0.3 W 4 6 2 3 - - 1.4
22/01:00am 16.1 17.3 15.8 98 0.2 WNW 4 6 2 3 - - 1.4
22/12:30am 16.0 17.8 15.5 97 0.3 CALM 0 0 0 0 - - 0.8
22/12:00am 16.2 17.3 15.7 97 0.3 NE 4 4 2 2 - - 0.4
 
Date/Time
EDT
Temp
°C
App
Temp
°C
Dew
Point
°C
Rel
Hum
%
Delta-T
°C
Wind Press
QNH
hPa
Press
MSL
hPa
Rain since
9am
mm
Dir  Spd
km/h
Gust
km/h
Spd
kts
Gust
kts
21/11:30pm 16.5 18.0 15.7 95 0.5 NE 2 4 1 2 - - 0.2
21/11:00pm 16.6 18.4 15.6 94 0.6 CALM 0 0 0 0 - - 0.2
21/10:30pm 16.6 18.4 15.6 94 0.6 CALM 0 0 0 0 - - 0.2
21/10:00pm 16.4 18.2 15.4 94 0.6 CALM 0 0 0 0 - - 0.2
21/09:30pm 16.3 17.7 15.3 94 0.6 NNW 2 4 1 2 - - 0.2
21/09:00pm 16.3 18.0 15.3 94 0.6 CALM 0 2 0 1 - - 0.0
21/08:30pm 16.4 18.0 14.8 90 0.9 CALM 0 0 0 0 - - 0.0
21/08:00pm 17.0 17.3 14.6 86 1.4 S 6 11 3 6 - - 0.0
21/07:30pm 17.1 17.4 14.6 85 1.4 S 6 11 3 6 - - 0.0
21/07:00pm 16.9 16.9 14.2 84 1.5 S 7 13 4 7 - - 0.0
21/06:30pm 17.1 17.2 14.0 82 1.8 SSE 6 15 3 8 - - 0.0
21/06:00pm 17.2 17.1 13.9 81 1.9 S 7 13 4 7 - - 0.0
21/05:30pm 17.3 16.4 13.8 80 2.0 S 11 17 6 9 - - 0.0
21/05:00pm 17.4 15.8 13.9 80 2.0 S 15 24 8 13 - - 0.0
21/04:30pm 17.6 16.0 13.9 79 2.1 S 15 24 8 13 - - 0.0
21/04:00pm 17.9 17.0 13.6 76 2.4 S 11 17 6 9 - - 0.0
21/03:30pm 18.2 16.6 13.9 76 2.5 S 15 26 8 14 - - 0.0
21/03:00pm 18.1 16.3 13.4 74 2.7 S 15 24 8 13 - - 0.0
21/02:30pm 18.2 16.0 13.3 73 2.8 S 17 26 9 14 - - 0.0
21/02:00pm 18.2 16.3 13.1 72 2.9 SSE 15 24 8 13 - - 0.0
21/01:30pm 18.2 16.1 13.5 74 2.7 S 17 24 9 13 - - 0.0
21/01:00pm 18.2 15.6 13.3 73 2.8 S 19 32 10 17 - - 0.0
21/12:30pm 17.7 15.2 13.4 76 2.4 SSW 19 30 10 16 - - 0.0
21/12:00pm 17.6 15.8 13.3 76 2.4 S 15 24 8 13 - - 0.0
21/11:30am 17.3 15.2 13.6 79 2.1 SSW 17 30 9 16 - - 0.0
21/11:00am 16.8 15.1 13.7 82 1.8 S 15 26 8 14 - - 0.0
21/10:30am 16.6 15.3 13.7 83 1.6 SSW 13 24 7 13 - - 0.0
21/10:00am 16.3 14.7 13.8 85 1.4 SSW 15 26 8 14 - - 0.0
21/09:30am 16.3 14.1 14.3 88 1.1 SSW 19 28 10 15 - - 0.0
21/09:00am 15.9 13.7 14.4 91 0.9 SSW 19 30 10 16 - - 10.0
21/08:30am 16.0 13.8 14.5 91 0.9 S 19 28 10 15 - - 10.0
21/08:00am 16.1 13.9 14.5 90 0.9 SSW 19 30 10 16 - - 10.0
21/07:30am 16.1 13.9 14.8 92 0.7 S 20 33 11 18 - - 10.0
21/07:00am 16.1 13.5 14.8 92 0.7 S 22 32 12 17 - - 10.0
21/06:30am 16.3 14.3 15.0 92 0.8 S 19 28 10 15 - - 10.0
21/06:00am 16.4 14.5 15.3 93 0.6 S 19 30 10 16 - - 10.0
21/05:30am 16.6 15.2 15.6 94 0.6 S 17 24 9 13 - - 10.0
21/05:00am 17.0 16.6 16.2 95 0.5 S 13 20 7 11 - - 10.0
21/04:30am 17.3 18.9 17.0 98 0.2 SSW 4 11 2 6 - - 10.0
21/04:00am 17.3 19.7 17.0 98 0.2 CALM 0 0 0 0 - - 10.0
21/03:30am 17.3 19.7 17.0 98 0.2 CALM 0 0 0 0 - - 10.0
21/03:00am 17.3 19.7 17.0 98 0.2 CALM 0 0 0 0 - - 10.0
21/02:30am 17.2 19.5 16.7 97 0.3 CALM 0 4 0 2 - - 10.0
21/02:00am 17.1 19.3 16.5 96 0.4 CALM 0 0 0 0 - - 10.0
21/01:30am 17.5 19.7 16.5 94 0.6 CALM 0 2 0 1 - - 10.0
21/01:00am 17.8 19.4 16.8 94 0.6 ESE 4 7 2 4 - - 10.0
21/12:30am 18.1 18.7 16.8 92 0.8 N 9 19 5 10 - - 10.0
21/12:00am 18.0 19.1 17.0 94 0.6 NE 7 13 4 7 - - 10.0
 
Date/Time
EDT
Temp
°C
App
Temp
°C
Dew
Point
°C
Rel
Hum
%
Delta-T
°C
Wind Press
QNH
hPa
Press
MSL
hPa
Rain since
9am
mm
Dir  Spd
km/h
Gust
km/h
Spd
kts
Gust
kts
20/11:30pm 18.5 18.7 16.8 90 1.0 N 11 17 6 9 - - 9.0
20/11:00pm 18.6 18.0 17.6 94 0.6 N 17 28 9 15 - - 8.2
20/10:30pm 18.5 20.8 17.7 95 0.5 E 2 6 1 3 - - 8.0
20/10:00pm 18.3 20.1 17.5 95 0.5 NE 4 6 2 3 - - 8.0
20/09:30pm 18.4 20.4 17.9 97 0.3 NNE 4 6 2 3 - - 8.0

Latest Capital City Observations: Canberra | Sydney | Melbourne | Brisbane | Adelaide | Perth | Hobart | Darwin

Other Formats:

Comma delimited format used in spreadsheet applications
http://www.bom.gov.au/fwo/IDN60901/IDN60901.94782.axf

JavaScript Object Notation format (JSON) in row-major order
http://www.bom.gov.au/fwo/IDN60901/IDN60901.94782.json